createdAt,value
2023-04-13T00:02:24.646Z,7.68
2023-04-13T00:04:51.640Z,10.30
2023-04-13T00:07:19.124Z,9.25
2023-04-13T00:09:47.509Z,7.35
2023-04-13T00:12:15.973Z,8.50
2023-04-13T00:14:44.055Z,10.43
2023-04-13T00:17:11.159Z,7.50
2023-04-13T00:19:38.089Z,7.28
2023-04-13T00:22:05.065Z,10.73
2023-04-13T00:24:33.780Z,6.95
2023-04-13T00:27:01.321Z,10.15
2023-04-13T00:29:28.145Z,9.15
2023-04-13T00:31:54.920Z,8.25
2023-04-13T00:34:21.760Z,7.15
2023-04-13T00:36:49.394Z,10.35
2023-04-13T00:39:16.294Z,8.60
2023-04-13T00:41:43.068Z,7.45
2023-04-13T00:44:09.894Z,10.45
2023-04-13T00:46:36.899Z,9.32
2023-04-13T00:49:03.891Z,7.90
2023-04-13T00:51:30.873Z,15.05
2023-04-13T00:53:59.543Z,13.82
2023-04-13T00:56:27.319Z,12.63
2023-04-13T00:58:55.183Z,18.92
2023-04-13T01:01:22.220Z,23.38
2023-04-13T01:03:49.783Z,12.00
2023-04-13T01:06:32.017Z,14.77
2023-04-13T01:09:10.479Z,15.65
2023-04-13T01:12:00.311Z,18.27
2023-04-13T01:14:37.756Z,14.85
2023-04-13T01:17:10.822Z,11.82
2023-04-13T01:19:46.620Z,13.85
2023-04-13T01:22:14.511Z,8.13
2023-04-13T01:25:10.192Z,13.45
2023-04-13T01:27:43.735Z,9.05
2023-04-13T01:30:18.256Z,9.35
2023-04-13T01:32:45.839Z,10.55
2023-04-13T01:35:13.459Z,8.60
2023-04-13T01:37:43.251Z,7.97
2023-04-13T01:40:13.727Z,8.75
2023-04-13T01:42:41.479Z,12.43
2023-04-13T01:45:27.961Z,12.18
2023-04-13T01:48:05.098Z,15.93
2023-04-13T01:50:54.528Z,7.30
2023-04-13T01:53:29.097Z,9.63
2023-04-13T01:55:56.656Z,7.57
2023-04-13T01:58:28.116Z,8.40
2023-04-13T02:00:56.003Z,9.85
2023-04-13T02:03:23.104Z,10.32
2023-04-13T02:05:50.597Z,8.23
2023-04-13T02:08:20.852Z,17.05
2023-04-13T02:10:47.737Z,9.98
2023-04-13T02:13:14.751Z,11.88
2023-04-13T02:15:42.975Z,14.43
2023-04-13T02:18:10.677Z,11.23
2023-04-13T02:20:45.841Z,14.70
2023-04-13T02:23:15.111Z,10.50
2023-04-13T02:25:48.068Z,10.98
2023-04-13T02:28:16.045Z,12.45
2023-04-13T02:30:42.824Z,10.73
2023-04-13T02:33:10.004Z,23.58
2023-04-13T02:35:38.750Z,12.10
2023-04-13T02:38:06.885Z,11.63
2023-04-13T02:40:33.727Z,12.93
2023-04-13T02:43:00.502Z,10.50
2023-04-13T02:45:28.594Z,11.80
2023-04-13T02:47:55.530Z,10.60
2023-04-13T02:50:22.503Z,11.30
2023-04-13T02:52:49.259Z,11.95
2023-04-13T02:55:16.663Z,16.08
2023-04-13T02:57:43.419Z,20.65
2023-04-13T03:00:10.886Z,16.95
2023-04-13T03:02:38.650Z,12.18
2023-04-13T03:05:06.511Z,11.38
2023-04-13T03:07:34.211Z,16.70
2023-04-13T03:10:09.026Z,17.02
2023-04-13T03:12:36.885Z,14.75
2023-04-13T03:15:07.298Z,14.70
2023-04-13T03:17:34.360Z,15.25
2023-04-13T03:20:01.128Z,21.52
2023-04-13T03:22:30.666Z,13.73
2023-04-13T03:24:57.505Z,14.23
2023-04-13T03:27:24.292Z,18.23
2023-04-13T03:29:51.056Z,13.38
2023-04-13T03:32:17.849Z,11.38
2023-04-13T03:34:44.759Z,16.40
2023-04-13T03:37:12.011Z,13.93
2023-04-13T03:39:41.495Z,15.57
2023-04-13T03:42:08.316Z,12.23
2023-04-13T03:44:35.121Z,11.50
2023-04-13T03:47:01.881Z,12.45
2023-04-13T03:49:30.514Z,14.30
2023-04-13T03:51:58.904Z,12.57
2023-04-13T03:54:26.146Z,16.00
2023-04-13T03:56:53.299Z,10.60
2023-04-13T03:59:20.026Z,13.20
2023-04-13T04:01:47.046Z,13.05
2023-04-13T04:04:13.947Z,15.55
2023-04-13T04:06:40.850Z,14.52
2023-04-13T04:09:07.615Z,16.13
2023-04-13T04:11:34.393Z,14.77
2023-04-13T04:14:01.575Z,17.30
2023-04-13T04:16:28.701Z,12.45
2023-04-13T04:18:55.700Z,12.55
2023-04-13T04:21:22.468Z,12.35
2023-04-13T04:23:49.404Z,15.00
2023-04-13T04:26:17.867Z,13.70
2023-04-13T04:28:44.686Z,18.02
2023-04-13T04:31:12.226Z,12.73
2023-04-13T04:33:39.150Z,11.20
2023-04-13T04:36:14.296Z,12.75
2023-04-13T04:38:41.546Z,17.02
2023-04-13T04:41:08.814Z,13.10
2023-04-13T04:43:35.887Z,13.95
2023-04-13T04:46:04.480Z,14.82
2023-04-13T04:48:32.044Z,11.20
2023-04-13T04:51:00.010Z,12.90
2023-04-13T04:53:27.256Z,12.32
2023-04-13T04:55:54.282Z,14.60
2023-04-13T04:58:21.133Z,11.95
2023-04-13T05:00:48.066Z,16.15
2023-04-13T05:03:14.981Z,18.48
2023-04-13T05:05:42.579Z,12.90
2023-04-13T05:08:09.552Z,16.15
2023-04-13T05:10:36.401Z,16.58
2023-04-13T05:13:03.254Z,17.38
2023-04-13T05:15:30.025Z,12.55
2023-04-13T05:17:56.805Z,18.65
2023-04-13T05:20:23.628Z,16.42
2023-04-13T05:22:50.466Z,15.82
2023-04-13T05:25:17.439Z,13.18
2023-04-13T05:27:44.438Z,18.13
2023-04-13T05:30:12.110Z,13.27
2023-04-13T05:32:38.935Z,15.73
2023-04-13T05:35:06.637Z,14.48
2023-04-13T05:37:33.430Z,16.15
2023-04-13T05:40:00.327Z,15.73
2023-04-13T05:42:27.069Z,16.42
2023-04-13T05:44:53.916Z,15.07
2023-04-13T05:47:24.106Z,16.15
2023-04-13T05:49:52.572Z,12.75
2023-04-13T05:52:19.522Z,17.75
2023-04-13T05:54:46.408Z,13.93
2023-04-13T05:57:13.334Z,12.85
2023-04-13T05:59:40.303Z,13.70
2023-04-13T06:02:07.240Z,15.07
2023-04-13T06:04:35.110Z,27.05
2023-04-13T06:07:02.088Z,20.23
2023-04-13T06:09:29.139Z,17.30
2023-04-13T06:11:55.899Z,17.38
2023-04-13T06:14:23.519Z,14.02
2023-04-13T06:16:50.498Z,12.38
2023-04-13T06:19:17.463Z,11.75
2023-04-13T06:21:44.238Z,16.55
2023-04-13T06:24:11.110Z,14.00
2023-04-13T06:26:37.900Z,12.55
2023-04-13T06:29:04.793Z,14.75
2023-04-13T06:31:31.786Z,10.75
2023-04-13T06:33:58.968Z,13.55
2023-04-13T06:36:26.039Z,12.05
2023-04-13T06:38:52.816Z,15.63
2023-04-13T06:41:19.800Z,12.60
2023-04-13T06:43:47.617Z,11.80
2023-04-13T06:46:14.844Z,10.13
2023-04-13T06:48:41.655Z,8.73
2023-04-13T06:51:08.422Z,8.70
2023-04-13T06:53:35.201Z,7.53
2023-04-13T06:56:02.194Z,5.72
2023-04-13T06:58:29.470Z,8.95
2023-04-13T07:00:56.261Z,4.22
2023-04-13T07:03:23.242Z,7.47
2023-04-13T07:05:50.517Z,5.22
2023-04-13T07:08:19.310Z,4.50
2023-04-13T07:10:46.606Z,4.60
2023-04-13T07:13:13.622Z,5.57
2023-04-13T07:15:40.592Z,3.08
2023-04-13T07:18:07.666Z,7.22
2023-04-13T07:20:35.780Z,7.57
2023-04-13T07:23:02.724Z,5.07
2023-04-13T07:25:29.546Z,4.90
2023-04-13T07:27:57.357Z,4.25
2023-04-13T07:30:24.146Z,6.90
2023-04-13T07:32:51.020Z,5.80
2023-04-13T07:35:17.803Z,6.97
2023-04-13T07:37:46.447Z,5.55
2023-04-13T07:40:13.500Z,6.95
2023-04-13T07:42:40.298Z,6.10
2023-04-13T07:45:07.955Z,7.60
2023-04-13T07:47:34.729Z,6.43
2023-04-13T07:50:01.621Z,5.05
2023-04-13T07:52:28.890Z,5.82
2023-04-13T07:54:55.773Z,5.80
2023-04-13T07:57:22.699Z,10.55
2023-04-13T07:59:49.612Z,6.90
2023-04-13T08:02:18.120Z,1.95
2023-04-13T08:04:45.100Z,1.60
2023-04-13T08:07:12.133Z,1.80
2023-04-13T08:09:42.763Z,1.52
2023-04-13T08:12:10.040Z,3.70
2023-04-13T08:14:37.309Z,1.60
2023-04-13T08:17:06.123Z,5.35
2023-04-13T08:19:33.866Z,2.30
2023-04-13T08:22:00.968Z,4.80
2023-04-13T08:24:27.796Z,2.67
2023-04-13T08:26:55.227Z,3.65
2023-04-13T08:29:24.166Z,2.20
2023-04-13T08:31:51.512Z,3.15
2023-04-13T08:34:18.891Z,13.18
2023-04-13T08:36:46.231Z,3.70
2023-04-13T08:39:13.690Z,4.57
2023-04-13T08:41:45.650Z,3.08
2023-04-13T08:44:13.690Z,4.35
2023-04-13T08:46:43.937Z,3.25
2023-04-13T08:49:12.305Z,2.55
2023-04-13T08:51:41.993Z,2.65
2023-04-13T08:54:08.868Z,2.90
2023-04-13T08:56:45.460Z,1.98
2023-04-13T08:59:15.627Z,2.90
2023-04-13T09:01:45.396Z,2.55
2023-04-13T09:04:14.478Z,6.57
2023-04-13T09:06:44.760Z,4.03
2023-04-13T09:09:15.920Z,1.15
2023-04-13T09:11:43.558Z,2.60
2023-04-13T09:14:10.669Z,1.38
2023-04-13T09:16:42.255Z,1.50
2023-04-13T09:19:09.834Z,1.27
2023-04-13T09:21:41.565Z,3.60
2023-04-13T09:24:09.359Z,3.72
2023-04-13T09:26:46.777Z,2.13
2023-04-13T09:29:16.469Z,5.03
2023-04-13T09:31:45.644Z,1.00
2023-04-13T09:34:13.651Z,1.25
2023-04-13T09:36:53.335Z,1.00
2023-04-13T09:39:30.911Z,1.05
2023-04-13T09:41:58.677Z,1.23
2023-04-13T09:44:28.225Z,1.25
2023-04-13T09:47:06.999Z,1.02
2023-04-13T09:49:43.312Z,0.77
2023-04-13T09:52:24.192Z,1.23
2023-04-13T09:54:55.866Z,1.52
2023-04-13T09:57:40.827Z,1.45
2023-04-13T10:00:17.710Z,0.75
2023-04-13T10:02:48.303Z,1.25
2023-04-13T10:05:15.357Z,1.27
2023-04-13T10:07:46.484Z,1.90
2023-04-13T10:10:13.628Z,13.07
2023-04-13T10:12:46.501Z,2.47
2023-04-13T10:15:31.890Z,1.77
2023-04-13T10:18:16.315Z,1.90
2023-04-13T10:20:44.241Z,1.25
2023-04-13T10:23:11.435Z,3.33
2023-04-13T10:25:48.492Z,2.45
2023-04-13T10:28:15.399Z,2.72
2023-04-13T10:30:50.470Z,1.83
2023-04-13T10:33:18.017Z,1.00
2023-04-13T10:35:58.707Z,1.45
2023-04-13T10:38:26.252Z,0.65
2023-04-13T10:40:53.470Z,6.43
2023-04-13T10:43:30.725Z,1.65
2023-04-13T10:46:11.348Z,2.03
2023-04-13T10:48:38.245Z,1.50
2023-04-13T10:51:05.169Z,1.60
2023-04-13T10:53:33.394Z,1.38
2023-04-13T10:56:00.542Z,1.35
2023-04-13T10:58:32.964Z,3.28
2023-04-13T11:01:00.568Z,7.45
2023-04-13T11:03:29.275Z,2.90
2023-04-13T11:05:58.496Z,4.85
2023-04-13T11:08:26.756Z,1.00
2023-04-13T11:10:57.537Z,1.85
2023-04-13T11:13:29.640Z,1.55
2023-04-13T11:16:06.680Z,2.25
2023-04-13T11:18:33.645Z,2.80
2023-04-13T11:21:05.851Z,2.28
2023-04-13T11:23:34.858Z,1.15
2023-04-13T11:26:02.285Z,2.47
2023-04-13T11:28:43.902Z,1.83
2023-04-13T11:31:12.016Z,9.35
2023-04-13T11:33:40.567Z,2.20
2023-04-13T11:36:09.574Z,1.25
2023-04-13T11:38:39.931Z,0.80
2023-04-13T11:43:37.150Z,6.18
2023-04-13T11:46:04.069Z,3.63
2023-04-13T11:48:31.181Z,3.13
2023-04-13T11:50:59.658Z,3.17
2023-04-13T11:53:26.715Z,1.05
2023-04-13T11:55:54.081Z,4.63
2023-04-13T11:58:21.627Z,0.70
2023-04-13T12:00:49.378Z,0.50
2023-04-13T12:03:34.530Z,5.32
2023-04-13T12:06:07.894Z,0.65
2023-04-13T12:08:36.686Z,4.22
2023-04-13T12:13:52.367Z,0.85
2023-04-13T12:19:10.541Z,1.67
2023-04-13T12:21:40.160Z,0.95
2023-04-13T12:24:07.663Z,1.30
2023-04-13T12:29:10.501Z,0.93
2023-04-13T12:31:39.560Z,0.60
2023-04-13T12:34:08.125Z,2.17
2023-04-13T12:36:36.725Z,1.02
2023-04-13T12:39:07.075Z,2.40
2023-04-13T12:41:34.273Z,0.20
2023-04-13T12:44:01.497Z,0.32
2023-04-13T12:46:29.361Z,1.70
2023-04-13T12:48:56.463Z,2.58
2023-04-13T12:51:23.347Z,0.20
2023-04-13T12:53:50.299Z,0.73
2023-04-13T12:56:17.328Z,0.60
2023-04-13T12:58:44.557Z,0.52
2023-04-13T13:01:11.665Z,0.45
2023-04-13T13:03:38.702Z,0.40
2023-04-13T13:06:07.262Z,1.20
2023-04-13T13:08:37.503Z,0.28
2023-04-13T13:11:06.341Z,1.38
2023-04-13T13:13:33.181Z,1.95
2023-04-13T13:16:00.265Z,2.05
2023-04-13T13:18:38.508Z,9.43
2023-04-13T13:21:13.868Z,4.68
2023-04-13T13:23:41.040Z,14.15
2023-04-13T13:26:23.256Z,2.30
2023-04-13T13:28:52.209Z,0.50
2023-04-13T13:31:19.514Z,0.65
2023-04-13T13:33:46.803Z,1.10
2023-04-13T13:36:15.629Z,0.90
2023-04-13T13:38:43.593Z,1.15
2023-04-13T13:41:11.045Z,2.03
2023-04-13T13:43:38.438Z,0.75
2023-04-13T13:46:06.412Z,0.80
2023-04-13T13:48:33.364Z,3.00
2023-04-13T13:51:00.433Z,1.00
2023-04-13T13:53:27.419Z,1.35
2023-04-13T13:55:55.002Z,2.05
2023-04-13T13:58:22.549Z,2.80
2023-04-13T14:00:51.140Z,1.20
2023-04-13T14:03:21.960Z,1.02
2023-04-13T14:05:49.581Z,2.43
2023-04-13T14:08:17.589Z,0.82
2023-04-13T14:10:49.182Z,1.13
2023-04-13T14:13:17.080Z,2.10
2023-04-13T14:15:43.978Z,1.52
2023-04-13T14:18:13.170Z,0.85
2023-04-13T14:20:40.498Z,1.17
2023-04-13T14:23:09.749Z,1.52
2023-04-13T14:25:38.247Z,1.10
2023-04-13T14:28:05.115Z,2.38
2023-04-13T14:30:32.166Z,2.20
2023-04-13T14:32:58.968Z,3.28
2023-04-13T14:35:25.955Z,2.92
2023-04-13T14:37:53.008Z,1.48
2023-04-13T14:40:22.955Z,1.08
2023-04-13T14:42:53.161Z,10.85
2023-04-13T14:45:21.405Z,2.05
2023-04-13T14:51:56.230Z,1.38
2023-04-13T14:54:23.191Z,0.80
2023-04-13T14:56:50.080Z,2.80
2023-04-13T14:59:16.994Z,1.67
2023-04-13T15:01:44.061Z,0.90
2023-04-13T15:04:11.309Z,2.63
2023-04-13T15:06:40.269Z,1.05
2023-04-13T15:09:13.115Z,0.60
2023-04-13T15:11:40.333Z,2.97
2023-04-13T15:14:08.669Z,1.92
2023-04-13T15:16:35.979Z,1.77
2023-04-13T15:19:03.137Z,1.10
2023-04-13T15:21:30.427Z,2.25
2023-04-13T15:23:57.450Z,2.67
2023-04-13T15:26:24.483Z,4.85
2023-04-13T15:28:51.511Z,6.13
2023-04-13T15:31:18.478Z,4.13
2023-04-13T15:33:45.530Z,4.35
2023-04-13T15:36:16.350Z,3.67
2023-04-13T15:38:43.349Z,1.77
2023-04-13T15:41:11.326Z,1.35
2023-04-13T15:43:39.126Z,0.93
2023-04-13T15:46:06.256Z,2.63
2023-04-13T15:48:33.302Z,3.67
2023-04-13T15:51:00.560Z,1.08
2023-04-13T15:53:28.085Z,4.45
2023-04-13T15:55:55.330Z,4.50
2023-04-13T15:58:22.561Z,2.75
2023-04-13T16:01:08.324Z,1.92
2023-04-13T16:03:35.635Z,1.00
2023-04-13T16:06:03.865Z,1.88
2023-04-13T16:08:31.377Z,4.30
2023-04-13T16:10:58.563Z,3.00
2023-04-13T16:13:37.471Z,3.13
2023-04-13T16:17:00.260Z,2.05
2023-04-13T16:19:27.997Z,4.47
2023-04-13T16:22:02.770Z,3.33
2023-04-13T16:24:29.623Z,2.17
2023-04-13T16:26:57.426Z,1.67
2023-04-13T16:29:24.889Z,2.22
2023-04-13T16:31:52.055Z,2.47
2023-04-13T16:34:26.271Z,3.67
2023-04-13T16:36:54.064Z,1.55
2023-04-13T16:39:22.025Z,2.63
2023-04-13T16:41:49.289Z,1.92
2023-04-13T16:44:16.365Z,3.10
2023-04-13T16:46:43.336Z,1.25
2023-04-13T16:49:10.570Z,1.65
2023-04-13T16:51:37.793Z,1.88
2023-04-13T16:54:06.605Z,4.40
2023-04-13T16:56:33.625Z,3.30
2023-04-13T16:59:01.499Z,3.15
2023-04-13T17:01:29.180Z,2.13
2023-04-13T17:03:56.301Z,2.38
2023-04-13T17:06:23.443Z,3.22
2023-04-13T17:08:50.862Z,2.03
2023-04-13T17:11:17.834Z,3.75
2023-04-13T17:13:45.027Z,5.00
2023-04-13T17:16:12.159Z,2.63
2023-04-13T17:18:39.260Z,2.22
2023-04-13T17:21:06.284Z,2.28
2023-04-13T17:23:33.215Z,1.60
2023-04-13T17:26:00.143Z,3.22
2023-04-13T17:28:27.311Z,2.97
2023-04-13T17:30:54.547Z,3.45
2023-04-13T17:33:21.550Z,2.53
2023-04-13T17:35:52.340Z,1.75
2023-04-13T17:38:19.624Z,3.88
2023-04-13T17:40:46.692Z,3.08
2023-04-13T17:43:14.066Z,4.03
2023-04-13T17:45:41.063Z,2.95
2023-04-13T17:48:08.063Z,2.45
2023-04-13T17:50:35.103Z,5.40
2023-04-13T17:53:04.148Z,6.65
2023-04-13T17:55:31.554Z,3.85
2023-04-13T17:57:58.382Z,4.45
2023-04-13T18:00:27.011Z,6.90
2023-04-13T18:02:54.275Z,10.20
2023-04-13T18:05:21.400Z,2.63
2023-04-13T18:07:48.275Z,3.67
2023-04-13T18:10:15.351Z,28.73
2023-04-13T18:12:42.325Z,132.57
2023-04-13T18:15:09.536Z,56.35
2023-04-13T18:17:38.145Z,6.80
2023-04-13T18:20:05.780Z,5.38
2023-04-13T18:22:33.002Z,5.38
2023-04-13T18:24:59.817Z,6.57
2023-04-13T18:27:27.589Z,10.10
2023-04-13T18:29:55.150Z,4.30
2023-04-13T18:32:22.803Z,4.50
2023-04-13T18:34:50.138Z,8.80
2023-04-13T18:37:17.014Z,7.55
2023-04-13T18:39:44.940Z,5.18
2023-04-13T18:42:11.929Z,6.75
2023-04-13T18:44:38.874Z,8.85
2023-04-13T18:47:05.746Z,6.00
2023-04-13T18:49:32.671Z,4.57
2023-04-13T18:51:59.585Z,3.15
2023-04-13T18:54:26.467Z,2.85
2023-04-13T18:56:53.371Z,4.00
2023-04-13T18:59:20.247Z,3.42
2023-04-13T19:01:47.785Z,4.18
2023-04-13T19:04:15.040Z,3.65
2023-04-13T19:06:41.943Z,7.10
2023-04-13T19:09:08.739Z,7.07
2023-04-13T19:11:46.625Z,6.35
2023-04-13T19:14:13.518Z,5.88
2023-04-13T19:16:41.593Z,6.45
2023-04-13T19:19:09.138Z,3.65
2023-04-13T19:21:36.010Z,4.28
2023-04-13T19:24:02.943Z,5.65
2023-04-13T19:26:30.519Z,5.63
2023-04-13T19:28:57.487Z,9.05
2023-04-13T19:31:24.370Z,4.30
2023-04-13T19:33:51.814Z,9.40
2023-04-13T19:36:18.703Z,6.68
2023-04-13T19:38:45.571Z,4.00
2023-04-13T19:41:15.396Z,4.80
2023-04-13T19:43:42.190Z,6.85
2023-04-13T19:46:09.225Z,5.10
2023-04-13T19:48:36.235Z,6.13
2023-04-13T19:51:03.443Z,6.63
2023-04-13T19:53:30.320Z,7.32
2023-04-13T19:55:57.455Z,5.75
2023-04-13T19:58:24.222Z,9.63
2023-04-13T20:00:50.976Z,7.40
2023-04-13T20:03:20.529Z,6.75
2023-04-13T20:05:48.196Z,5.90
2023-04-13T20:08:16.496Z,8.45
2023-04-13T20:10:43.777Z,4.93
2023-04-13T20:13:11.001Z,4.70
2023-04-13T20:15:38.018Z,4.95
2023-04-13T20:18:07.280Z,5.50
2023-04-13T20:20:36.682Z,7.47
2023-04-13T20:23:04.528Z,7.10
2023-04-13T20:25:31.330Z,5.70
2023-04-13T20:27:58.076Z,5.13
2023-04-13T20:30:25.092Z,6.13
2023-04-13T20:32:51.924Z,3.95
2023-04-13T20:35:19.941Z,5.18
2023-04-13T20:37:46.768Z,9.13
2023-04-13T20:40:13.669Z,7.20
2023-04-13T20:42:44.336Z,5.10
2023-04-13T20:45:15.155Z,6.93
2023-04-13T20:47:45.718Z,3.70
2023-04-13T20:50:13.152Z,9.80
2023-04-13T20:52:41.939Z,5.65
2023-04-13T20:55:12.020Z,5.63
2023-04-13T20:57:41.984Z,7.22
2023-04-13T21:00:15.577Z,5.20
2023-04-13T21:02:43.602Z,3.92
2023-04-13T21:05:10.836Z,3.50
2023-04-13T21:07:38.111Z,3.30
2023-04-13T21:10:05.250Z,5.65
2023-04-13T21:12:32.098Z,4.13
2023-04-13T21:14:59.001Z,5.88
2023-04-13T21:17:25.971Z,2.08
2023-04-13T21:19:52.844Z,3.05
2023-04-13T21:22:19.797Z,1.75
2023-04-13T21:24:46.810Z,1.20
2023-04-13T21:27:14.105Z,1.10
2023-04-13T21:29:40.907Z,1.20
2023-04-13T21:32:08.187Z,0.50
2023-04-13T21:34:35.026Z,0.82
2023-04-13T21:37:03.229Z,1.23
2023-04-13T21:39:30.508Z,0.80
2023-04-13T21:41:57.654Z,0.60
2023-04-13T21:44:29.688Z,1.10
2023-04-13T21:46:58.682Z,1.30
2023-04-13T21:49:25.508Z,2.13
2023-04-13T21:51:52.282Z,2.42
2023-04-13T21:54:19.108Z,3.15
2023-04-13T21:56:46.787Z,1.10
2023-04-13T21:59:13.710Z,1.35
2023-04-13T22:01:40.537Z,1.00
2023-04-13T22:04:07.448Z,4.00
2023-04-13T22:06:34.349Z,1.88
2023-04-13T22:09:01.585Z,0.77
2023-04-13T22:11:28.595Z,0.80
2023-04-13T22:13:55.473Z,2.05
2023-04-13T22:16:22.577Z,4.07
2023-04-13T22:18:49.499Z,0.77
2023-04-13T22:21:16.399Z,4.45
2023-04-13T22:23:43.171Z,3.05
2023-04-13T22:26:10.084Z,2.50
2023-04-13T22:28:36.924Z,0.95
2023-04-13T22:31:11.905Z,1.02
2023-04-13T22:33:40.409Z,2.15
2023-04-13T22:36:17.621Z,3.95
2023-04-13T22:38:44.485Z,3.17
2023-04-13T22:41:11.487Z,1.88
2023-04-13T22:43:38.558Z,1.05
2023-04-13T22:46:05.832Z,4.82
2023-04-13T22:48:32.667Z,1.33
2023-04-13T22:51:03.683Z,1.10
2023-04-13T22:53:31.148Z,1.38
2023-04-13T22:55:59.263Z,1.75
2023-04-13T22:58:26.277Z,2.08
2023-04-13T23:00:53.126Z,3.53
2023-04-13T23:03:20.257Z,3.05
2023-04-13T23:05:47.172Z,1.08
2023-04-13T23:08:13.957Z,1.13
2023-04-13T23:10:40.725Z,2.28
2023-04-13T23:13:07.616Z,0.50
2023-04-13T23:15:34.480Z,1.27
2023-04-13T23:18:02.719Z,0.73
2023-04-13T23:20:29.817Z,1.30
2023-04-13T23:22:56.698Z,4.05
2023-04-13T23:25:23.652Z,0.60
2023-04-13T23:27:50.521Z,0.98
2023-04-13T23:30:17.320Z,0.82
2023-04-13T23:32:44.156Z,0.73
2023-04-13T23:35:11.069Z,1.17
2023-04-13T23:37:37.844Z,2.28
2023-04-13T23:40:05.528Z,1.25
2023-04-13T23:42:32.343Z,0.57
2023-04-13T23:44:59.105Z,0.82
2023-04-13T23:47:26.558Z,0.85
2023-04-13T23:49:54.205Z,0.75
2023-04-13T23:52:21.114Z,1.85
2023-04-13T23:54:47.989Z,3.08
2023-04-13T23:57:14.737Z,7.70
2023-04-13T23:59:41.581Z,9.85
